createdAt,value
2018-06-15T00:01:43.078Z,21.50
2018-06-15T00:04:10.034Z,19.80
2018-06-15T00:06:36.978Z,21.60
2018-06-15T00:09:06.316Z,21.07
2018-06-15T00:11:33.286Z,21.83
2018-06-15T00:14:00.230Z,19.90
2018-06-15T00:16:27.185Z,20.43
2018-06-15T00:18:54.118Z,20.57
2018-06-15T00:21:21.068Z,17.27
2018-06-15T00:23:48.004Z,17.77
2018-06-15T00:26:14.946Z,17.27
2018-06-15T00:28:41.898Z,18.47
2018-06-15T00:31:08.833Z,17.57
2018-06-15T00:33:35.782Z,16.90
2018-06-15T00:36:02.763Z,18.23
2018-06-15T00:38:29.734Z,20.70
2018-06-15T00:40:56.665Z,17.00
2018-06-15T00:43:23.629Z,17.50
2018-06-15T00:45:50.570Z,16.63
2018-06-15T00:48:17.531Z,16.73
2018-06-15T00:50:44.462Z,17.17
2018-06-15T00:53:11.411Z,19.47
2018-06-15T00:55:38.358Z,15.47
2018-06-15T00:58:05.323Z,16.27
2018-06-15T01:00:32.265Z,20.63
2018-06-15T01:02:59.213Z,17.33
2018-06-15T01:05:26.161Z,19.63
2018-06-15T01:07:53.226Z,20.00
2018-06-15T01:10:20.181Z,17.47
2018-06-15T01:12:47.130Z,21.17
2018-06-15T01:15:14.073Z,20.10
2018-06-15T01:17:41.023Z,19.80
2018-06-15T01:20:07.969Z,18.00
2018-06-15T01:22:34.926Z,17.53
2018-06-15T01:25:01.885Z,17.40
2018-06-15T01:27:28.849Z,14.93
2018-06-15T01:29:55.789Z,14.77
2018-06-15T01:32:22.781Z,16.73
2018-06-15T01:34:49.705Z,15.47
2018-06-15T01:37:16.641Z,14.73
2018-06-15T01:39:43.626Z,14.57
2018-06-15T01:42:10.549Z,15.20
2018-06-15T01:44:37.502Z,15.27
2018-06-15T01:47:04.436Z,14.73
2018-06-15T01:49:31.386Z,15.13
2018-06-15T01:51:58.315Z,13.80
2018-06-15T01:54:25.257Z,20.50
2018-06-15T01:56:52.178Z,16.53
2018-06-15T01:59:19.110Z,17.93
2018-06-15T02:01:46.042Z,17.53
2018-06-15T02:04:19.921Z,18.10
2018-06-15T02:06:46.854Z,18.30
2018-06-15T02:09:13.801Z,18.17
2018-06-15T02:11:40.741Z,17.23
2018-06-15T02:14:07.663Z,16.73
2018-06-15T02:16:34.596Z,16.47
2018-06-15T02:19:01.620Z,14.07
2018-06-15T02:21:28.536Z,13.57
2018-06-15T02:23:55.462Z,13.80
2018-06-15T02:26:22.417Z,13.47
2018-06-15T02:28:49.366Z,12.20
2018-06-15T02:31:16.877Z,12.90
2018-06-15T02:33:43.824Z,12.90
2018-06-15T02:36:10.753Z,12.57
2018-06-15T02:38:37.686Z,11.87
2018-06-15T02:41:04.715Z,12.77
2018-06-15T02:43:31.654Z,11.87
2018-06-15T02:45:58.587Z,12.63
2018-06-15T02:48:25.533Z,12.57
2018-06-15T02:50:52.478Z,11.27
2018-06-15T02:53:19.430Z,11.77
2018-06-15T02:55:46.404Z,10.30
2018-06-15T02:58:13.333Z,10.23
2018-06-15T03:00:40.288Z,10.13
2018-06-15T03:03:07.233Z,10.30
2018-06-15T03:05:34.325Z,10.40
2018-06-15T03:08:01.274Z,10.47
2018-06-15T03:10:28.234Z,11.03
2018-06-15T03:12:55.171Z,9.97
2018-06-15T03:15:22.158Z,10.90
2018-06-15T03:17:49.102Z,9.73
2018-06-15T03:20:16.073Z,11.47
2018-06-15T03:22:43.006Z,11.43
2018-06-15T03:25:09.979Z,10.87
2018-06-15T03:27:36.889Z,10.63
2018-06-15T03:30:04.234Z,11.00
2018-06-15T03:32:31.157Z,10.53
2018-06-15T03:34:58.093Z,10.17
2018-06-15T03:37:25.026Z,10.40
2018-06-15T03:39:51.973Z,9.80
2018-06-15T03:42:18.917Z,9.27
2018-06-15T03:44:45.849Z,8.70
2018-06-15T03:47:12.776Z,9.40
2018-06-15T03:49:39.718Z,10.00
2018-06-15T03:52:06.641Z,9.93
2018-06-15T03:54:33.569Z,9.40
2018-06-15T03:57:00.497Z,9.17
2018-06-15T03:59:27.446Z,9.67
2018-06-15T04:01:54.384Z,10.90
2018-06-15T04:04:21.304Z,10.00
2018-06-15T04:06:48.260Z,9.90
2018-06-15T04:09:15.208Z,10.53
2018-06-15T04:11:42.186Z,10.10
2018-06-15T04:14:09.132Z,9.67
2018-06-15T04:16:36.083Z,10.30
2018-06-15T04:19:03.032Z,10.60
2018-06-15T04:21:29.967Z,11.03
2018-06-15T04:23:56.958Z,10.13
2018-06-15T04:26:23.879Z,12.57
2018-06-15T04:28:50.801Z,11.43
2018-06-15T04:31:17.738Z,10.50
2018-06-15T04:33:44.665Z,9.87
2018-06-15T04:36:11.585Z,11.10
2018-06-15T04:38:38.501Z,11.30
2018-06-15T04:41:05.633Z,10.70
2018-06-15T04:43:32.545Z,10.77
2018-06-15T04:45:59.461Z,10.77
2018-06-15T04:48:26.369Z,10.50
2018-06-15T04:50:53.321Z,10.30
2018-06-15T04:53:20.244Z,9.87
2018-06-15T04:55:47.177Z,9.80
2018-06-15T04:58:14.072Z,9.73
2018-06-15T05:00:41.016Z,9.10
2018-06-15T05:03:10.623Z,9.77
2018-06-15T05:05:37.534Z,10.07
2018-06-15T05:08:04.450Z,9.00
2018-06-15T05:10:31.363Z,9.47
2018-06-15T05:12:58.273Z,8.53
2018-06-15T05:15:25.195Z,9.40
2018-06-15T05:17:52.097Z,8.73
2018-06-15T05:20:19.012Z,9.33
2018-06-15T05:22:45.923Z,9.17
2018-06-15T05:25:12.897Z,8.10
2018-06-15T05:27:39.816Z,7.90
2018-06-15T05:30:06.764Z,8.00
2018-06-15T05:32:33.681Z,8.57
2018-06-15T05:35:00.622Z,7.77
2018-06-15T05:37:27.784Z,7.60
2018-06-15T05:39:54.738Z,7.50
2018-06-15T05:42:21.693Z,7.73
2018-06-15T05:44:48.609Z,8.33
2018-06-15T05:47:15.560Z,6.60
2018-06-15T05:49:42.485Z,6.47
2018-06-15T05:52:09.430Z,5.87
2018-06-15T05:54:36.364Z,5.63
2018-06-15T05:57:03.359Z,4.97
2018-06-15T05:59:30.288Z,4.83
2018-06-15T06:01:57.234Z,4.77
2018-06-15T06:04:24.173Z,4.37
2018-06-15T06:06:56.841Z,4.23
2018-06-15T06:09:23.758Z,5.20
2018-06-15T06:11:50.692Z,4.70
2018-06-15T06:14:17.622Z,4.97
2018-06-15T06:16:44.560Z,4.20
2018-06-15T06:19:11.488Z,4.80
2018-06-15T06:21:38.417Z,4.70
2018-06-15T06:24:05.357Z,4.07
2018-06-15T06:26:32.305Z,4.53
2018-06-15T06:28:59.241Z,4.57
2018-06-15T06:31:26.202Z,4.13
2018-06-15T06:33:53.437Z,4.47
2018-06-15T06:36:20.390Z,4.03
2018-06-15T06:38:47.315Z,4.33
2018-06-15T06:41:14.257Z,4.33
2018-06-15T06:43:41.165Z,4.70
2018-06-15T06:46:08.130Z,4.37
2018-06-15T06:48:35.076Z,4.23
2018-06-15T06:51:02.007Z,4.50
2018-06-15T06:53:28.969Z,3.77
2018-06-15T06:55:55.924Z,3.60
2018-06-15T06:58:22.834Z,4.10
2018-06-15T07:00:49.792Z,4.00
2018-06-15T07:03:16.713Z,3.80
2018-06-15T07:05:43.641Z,4.23
2018-06-15T07:08:10.553Z,4.17
2018-06-15T07:10:37.472Z,3.23
2018-06-15T07:13:04.393Z,3.03
2018-06-15T07:15:31.318Z,3.70
2018-06-15T07:17:58.297Z,3.53
2018-06-15T07:20:25.216Z,3.30
2018-06-15T07:22:52.224Z,3.23
2018-06-15T07:25:19.177Z,3.40
2018-06-15T07:27:46.201Z,3.33
2018-06-15T07:30:13.125Z,3.10
2018-06-15T07:32:40.069Z,2.83
2018-06-15T07:35:06.980Z,3.30
2018-06-15T07:37:33.982Z,3.37
2018-06-15T07:40:00.888Z,3.43
2018-06-15T07:42:27.801Z,3.40
2018-06-15T07:44:54.709Z,3.33
2018-06-15T07:47:21.636Z,3.57
2018-06-15T07:49:48.538Z,2.90
2018-06-15T07:52:15.473Z,2.30
2018-06-15T07:54:43.509Z,2.73
2018-06-15T07:57:10.466Z,2.53
2018-06-15T07:59:37.398Z,2.30
2018-06-15T08:02:04.357Z,2.47
2018-06-15T08:04:31.270Z,2.80
2018-06-15T08:06:58.204Z,2.40
2018-06-15T08:09:25.476Z,2.73
2018-06-15T08:11:52.392Z,2.43
2018-06-15T08:14:19.333Z,2.90
2018-06-15T08:16:46.250Z,2.87
2018-06-15T08:19:13.165Z,2.60
2018-06-15T08:21:40.100Z,2.83
2018-06-15T08:24:07.358Z,2.73
2018-06-15T08:26:34.302Z,2.83
2018-06-15T08:29:01.222Z,2.60
2018-06-15T08:31:28.154Z,2.30
2018-06-15T08:33:55.172Z,2.77
2018-06-15T08:36:22.084Z,2.97
2018-06-15T08:38:49.035Z,2.83
2018-06-15T08:41:15.964Z,2.57
2018-06-15T08:43:43.343Z,2.63
2018-06-15T08:46:10.326Z,2.53
2018-06-15T08:48:37.256Z,3.10
2018-06-15T08:51:04.178Z,2.77
2018-06-15T08:53:31.162Z,2.67
2018-06-15T08:55:58.078Z,2.87
2018-06-15T08:58:25.009Z,2.37
2018-06-15T09:00:51.949Z,2.37
2018-06-15T09:03:18.886Z,2.47
2018-06-15T09:05:45.812Z,2.90
2018-06-15T09:08:12.740Z,2.60
2018-06-15T09:10:39.673Z,2.80
2018-06-15T09:13:06.723Z,2.83
2018-06-15T09:15:33.632Z,2.70
2018-06-15T09:18:00.557Z,2.57
2018-06-15T09:20:27.514Z,2.50
2018-06-15T09:22:54.448Z,2.50
2018-06-15T09:25:21.389Z,2.70
2018-06-15T09:27:48.328Z,2.70
2018-06-15T09:30:15.277Z,2.80
2018-06-15T09:32:42.247Z,2.77
2018-06-15T09:35:09.166Z,2.73
2018-06-15T09:37:36.177Z,2.70
2018-06-15T09:40:03.194Z,2.50
2018-06-15T09:42:30.577Z,2.50
2018-06-15T09:44:57.513Z,2.60
2018-06-15T09:47:24.565Z,2.93
2018-06-15T09:49:51.503Z,2.30
2018-06-15T09:52:18.437Z,2.37
2018-06-15T09:54:45.376Z,2.30
2018-06-15T09:57:12.307Z,2.60
2018-06-15T09:59:39.234Z,2.50
2018-06-15T10:02:06.169Z,2.10
2018-06-15T10:04:33.097Z,2.60
2018-06-15T10:07:00.030Z,2.37
2018-06-15T10:09:26.969Z,2.57
2018-06-15T10:11:53.890Z,2.63
2018-06-15T10:14:20.825Z,2.60
2018-06-15T10:16:47.746Z,2.87
2018-06-15T10:19:14.673Z,2.50
2018-06-15T10:21:41.597Z,2.30
2018-06-15T10:24:08.520Z,2.60
2018-06-15T10:26:35.449Z,2.67
2018-06-15T10:29:02.392Z,2.43
2018-06-15T10:31:29.392Z,2.53
2018-06-15T10:33:56.326Z,2.30
2018-06-15T10:36:23.249Z,2.63
2018-06-15T10:38:50.201Z,2.43
2018-06-15T10:41:17.115Z,2.40
2018-06-15T10:43:44.076Z,2.20
2018-06-15T10:46:10.993Z,2.40
2018-06-15T10:48:37.920Z,2.60
2018-06-15T10:51:04.865Z,2.57
2018-06-15T10:53:31.786Z,2.20
2018-06-15T10:55:58.725Z,2.33
2018-06-15T10:58:25.664Z,2.60
2018-06-15T11:00:52.582Z,2.23
2018-06-15T11:03:19.505Z,2.30
2018-06-15T11:05:46.455Z,2.53
2018-06-15T11:08:13.423Z,2.40
2018-06-15T11:10:40.313Z,2.33
2018-06-15T11:13:07.246Z,2.00
2018-06-15T11:15:34.177Z,2.40
2018-06-15T11:18:01.097Z,2.67
2018-06-15T11:20:28.024Z,2.50
2018-06-15T11:22:54.961Z,2.27
2018-06-15T11:25:21.874Z,2.50
2018-06-15T11:27:48.799Z,2.60
2018-06-15T11:30:15.734Z,2.20
2018-06-15T11:32:42.657Z,2.20
2018-06-15T11:35:09.569Z,2.77
2018-06-15T11:37:36.452Z,2.83
2018-06-15T11:40:03.373Z,2.47
2018-06-15T11:42:30.279Z,2.60
2018-06-15T11:44:57.202Z,2.13
2018-06-15T11:47:24.096Z,2.60
2018-06-15T11:49:51.009Z,2.30
2018-06-15T11:52:17.916Z,2.70
2018-06-15T11:54:44.833Z,2.63
2018-06-15T11:57:11.732Z,2.17
2018-06-15T11:59:38.635Z,2.23
2018-06-15T12:02:05.586Z,2.50
2018-06-15T12:04:32.517Z,2.33
2018-06-15T12:06:59.425Z,2.40
2018-06-15T12:09:26.341Z,2.30
2018-06-15T12:11:53.242Z,2.27
2018-06-15T12:14:20.154Z,2.20
2018-06-15T12:16:47.037Z,2.00
2018-06-15T12:19:13.973Z,2.00
2018-06-15T12:21:40.871Z,2.67
2018-06-15T12:24:07.787Z,1.90
2018-06-15T12:26:34.718Z,2.03
2018-06-15T12:29:01.636Z,2.70
2018-06-15T12:31:28.583Z,2.33
2018-06-15T12:33:55.594Z,1.77
2018-06-15T12:36:22.539Z,2.20
2018-06-15T12:38:49.445Z,2.60
2018-06-15T12:41:16.381Z,2.30
2018-06-15T12:43:43.341Z,2.23
2018-06-15T12:46:10.247Z,2.47
2018-06-15T12:48:37.168Z,2.47
2018-06-15T12:51:04.080Z,2.87
2018-06-15T12:53:30.964Z,2.73
2018-06-15T12:55:57.893Z,2.27
2018-06-15T12:58:24.786Z,2.43
2018-06-15T13:00:51.710Z,2.57
2018-06-15T13:03:18.617Z,2.13
2018-06-15T13:05:45.549Z,2.33
2018-06-15T13:08:12.441Z,2.63
2018-06-15T13:10:39.357Z,2.30
2018-06-15T13:13:06.269Z,2.60
2018-06-15T13:15:33.178Z,2.47
2018-06-15T13:18:00.120Z,3.00
2018-06-15T13:20:27.052Z,2.47
2018-06-15T13:22:53.955Z,2.17
2018-06-15T13:25:20.912Z,2.30
2018-06-15T13:27:47.826Z,2.50
2018-06-15T13:30:14.740Z,2.63
2018-06-15T13:32:41.649Z,2.60
2018-06-15T13:35:08.580Z,2.83
2018-06-15T13:37:35.488Z,2.47
2018-06-15T13:40:02.429Z,1.87
2018-06-15T13:42:29.355Z,2.10
2018-06-15T13:44:56.314Z,2.80
2018-06-15T13:47:23.261Z,2.70
2018-06-15T13:49:50.268Z,2.43
2018-06-15T13:52:17.226Z,2.87
2018-06-15T13:54:44.718Z,2.57
2018-06-15T13:57:11.661Z,3.00
2018-06-15T13:59:38.586Z,2.67
2018-06-15T14:02:05.525Z,2.83
2018-06-15T14:04:32.448Z,2.40
2018-06-15T14:06:59.938Z,2.87
2018-06-15T14:09:26.989Z,2.67
2018-06-15T14:11:53.942Z,2.33
2018-06-15T14:14:20.995Z,2.57
2018-06-15T14:16:48.077Z,2.40
2018-06-15T14:19:15.073Z,2.43
2018-06-15T14:21:42.171Z,2.83
2018-06-15T14:24:09.124Z,2.47
2018-06-15T14:26:36.265Z,2.93
2018-06-15T14:29:03.157Z,2.40
2018-06-15T14:31:30.424Z,2.70
2018-06-15T14:33:57.343Z,2.60
2018-06-15T14:36:24.429Z,2.47
2018-06-15T14:38:51.345Z,2.50
2018-06-15T14:41:18.347Z,2.60
2018-06-15T14:43:45.310Z,2.50
2018-06-15T14:46:12.286Z,2.53
2018-06-15T14:48:39.308Z,2.57
2018-06-15T14:51:06.238Z,2.47
2018-06-15T14:53:33.134Z,2.97
2018-06-15T14:56:00.038Z,2.87
2018-06-15T14:58:27.257Z,2.67
2018-06-15T15:00:54.149Z,2.60
2018-06-15T15:03:21.076Z,2.23
2018-06-15T15:05:47.987Z,3.07
2018-06-15T15:08:14.906Z,3.40
2018-06-15T15:10:41.809Z,2.60
2018-06-15T15:13:08.729Z,3.10
2018-06-15T15:15:35.633Z,2.57
2018-06-15T15:18:03.120Z,2.90
2018-06-15T15:20:30.166Z,2.70
2018-06-15T15:22:57.157Z,2.47
2018-06-15T15:25:24.106Z,2.73
2018-06-15T15:27:51.049Z,2.47
2018-06-15T15:30:18.065Z,2.97
2018-06-15T15:32:45.109Z,2.47
2018-06-15T15:35:12.026Z,2.67
2018-06-15T15:37:39.028Z,2.57
2018-06-15T15:40:06.048Z,2.60
2018-06-15T15:42:32.945Z,3.13
2018-06-15T15:45:00.030Z,2.77
2018-06-15T15:47:26.936Z,2.80
2018-06-15T15:49:53.954Z,2.90
2018-06-15T15:52:20.976Z,2.97
2018-06-15T15:54:48.025Z,2.70
2018-06-15T15:57:14.932Z,2.53
2018-06-15T15:59:41.832Z,2.87
2018-06-15T16:02:08.728Z,2.67
2018-06-15T16:04:35.770Z,2.83
2018-06-15T16:07:02.696Z,2.90
2018-06-15T16:09:29.632Z,2.63
2018-06-15T16:11:56.530Z,2.70
2018-06-15T16:14:23.437Z,2.63
2018-06-15T16:16:50.327Z,2.80
2018-06-15T16:19:17.237Z,2.47
2018-06-15T16:21:44.128Z,3.00
2018-06-15T16:24:11.045Z,2.93
2018-06-15T16:26:37.954Z,3.00
2018-06-15T16:29:04.873Z,3.27
2018-06-15T16:31:32.066Z,2.77
2018-06-15T16:33:58.960Z,2.30
2018-06-15T16:36:25.977Z,3.00
2018-06-15T16:38:52.886Z,2.80
2018-06-15T16:41:19.774Z,3.00
2018-06-15T16:43:46.678Z,3.07
2018-06-15T16:46:13.566Z,2.23
2018-06-15T16:48:40.778Z,3.00
2018-06-15T16:51:07.769Z,2.80
2018-06-15T16:53:34.673Z,2.90
2018-06-15T16:56:01.557Z,3.13
2018-06-15T16:58:28.484Z,3.00
2018-06-15T17:00:55.792Z,2.90
2018-06-15T17:03:22.696Z,2.63
2018-06-15T17:05:49.597Z,2.80
2018-06-15T17:08:16.620Z,2.67
2018-06-15T17:10:43.525Z,3.10
2018-06-15T17:13:10.445Z,3.30
2018-06-15T17:15:37.329Z,2.73
2018-06-15T17:18:04.820Z,2.80
2018-06-15T17:20:31.721Z,2.70
2018-06-15T17:22:58.616Z,2.90
2018-06-15T17:25:25.513Z,2.63
2018-06-15T17:27:52.409Z,2.60
2018-06-15T17:30:19.300Z,3.00
2018-06-15T17:32:46.265Z,2.90
2018-06-15T17:35:13.121Z,2.90
2018-06-15T17:37:40.019Z,2.90
2018-06-15T17:40:06.957Z,2.30
2018-06-15T17:42:33.840Z,2.63
2018-06-15T17:45:00.754Z,2.70
2018-06-15T17:47:27.636Z,2.97
2018-06-15T17:49:54.537Z,2.30
2018-06-15T17:52:21.428Z,2.63
2018-06-15T17:54:48.336Z,2.77
2018-06-15T17:57:15.252Z,2.67
2018-06-15T17:59:42.194Z,3.27
2018-06-15T18:02:09.088Z,3.83
2018-06-15T18:04:35.985Z,4.33
2018-06-15T18:07:02.897Z,3.80
2018-06-15T18:09:29.805Z,3.47
2018-06-15T18:11:56.692Z,2.60
2018-06-15T18:14:23.584Z,3.20
2018-06-15T18:16:50.482Z,3.47
2018-06-15T18:19:17.385Z,3.27
2018-06-15T18:21:44.281Z,3.03
2018-06-15T18:24:11.188Z,3.87
2018-06-15T18:26:38.110Z,2.97
2018-06-15T18:29:05.366Z,3.00
2018-06-15T18:31:32.277Z,3.23
2018-06-15T18:33:59.213Z,2.60
2018-06-15T18:36:26.113Z,2.90
2018-06-15T18:38:53.036Z,2.70
2018-06-15T18:41:19.932Z,2.53
2018-06-15T18:43:46.852Z,2.40
2018-06-15T18:46:14.256Z,2.33
2018-06-15T18:48:41.201Z,2.50
2018-06-15T18:51:08.085Z,2.30
2018-06-15T18:53:35.013Z,2.40
2018-06-15T18:56:01.949Z,2.60
2018-06-15T18:58:28.872Z,2.23
2018-06-15T19:00:55.789Z,3.00
2018-06-15T19:03:22.724Z,2.53
2018-06-15T19:05:49.625Z,2.77
2018-06-15T19:08:16.515Z,2.60
2018-06-15T19:10:43.425Z,2.60
2018-06-15T19:13:10.328Z,3.27
2018-06-15T19:15:37.247Z,3.07
2018-06-15T19:18:04.156Z,2.40
2018-06-15T19:20:31.067Z,2.77
2018-06-15T19:22:57.960Z,2.73
2018-06-15T19:25:24.900Z,2.53
2018-06-15T19:27:51.841Z,2.60
2018-06-15T19:30:18.779Z,3.33
2018-06-15T19:32:45.687Z,4.00
2018-06-15T19:35:12.616Z,4.00
2018-06-15T19:37:39.527Z,3.00
2018-06-15T19:40:06.484Z,2.90
2018-06-15T19:42:33.396Z,2.50
2018-06-15T19:45:00.308Z,3.07
2018-06-15T19:47:27.219Z,2.80
2018-06-15T19:49:54.141Z,2.80
2018-06-15T19:52:21.044Z,2.57
2018-06-15T19:54:47.980Z,2.43
2018-06-15T19:57:14.897Z,2.77
2018-06-15T19:59:41.805Z,2.87
2018-06-15T20:02:08.704Z,2.70
2018-06-15T20:04:35.620Z,2.20
2018-06-15T20:07:02.524Z,2.03
2018-06-15T20:09:29.464Z,2.57
2018-06-15T20:11:56.364Z,2.67
2018-06-15T20:14:23.265Z,2.70
2018-06-15T20:16:50.189Z,2.87
2018-06-15T20:19:17.097Z,3.00
2018-06-15T20:21:44.005Z,3.40
2018-06-15T20:24:10.910Z,3.20
2018-06-15T20:26:38.608Z,3.03
2018-06-15T20:29:05.545Z,3.13
2018-06-15T20:31:32.519Z,3.00
2018-06-15T20:33:59.446Z,2.70
2018-06-15T20:36:26.465Z,3.03
2018-06-15T20:38:53.280Z,2.53
2018-06-15T20:41:20.188Z,3.20
2018-06-15T20:43:47.169Z,3.27
2018-06-15T20:46:14.112Z,3.63
2018-06-15T20:48:41.130Z,3.27
2018-06-15T20:51:08.148Z,3.10
2018-06-15T20:53:35.090Z,2.80
2018-06-15T20:56:02.069Z,3.30
2018-06-15T20:58:29.207Z,3.43
2018-06-15T21:00:56.365Z,2.63
2018-06-15T21:03:23.292Z,3.07
2018-06-15T21:05:50.237Z,3.40
2018-06-15T21:08:17.157Z,3.33
2018-06-15T21:10:44.061Z,3.00
2018-06-15T21:13:10.968Z,3.10
2018-06-15T21:15:37.892Z,2.60
2018-06-15T21:18:04.920Z,2.67
2018-06-15T21:20:31.864Z,3.10
2018-06-15T21:22:58.808Z,2.80
2018-06-15T21:25:25.785Z,2.70
2018-06-15T21:27:53.857Z,2.40
2018-06-15T21:30:20.764Z,2.73
2018-06-15T21:32:47.665Z,2.63
2018-06-15T21:35:14.560Z,2.60
2018-06-15T21:37:41.457Z,2.43
2018-06-15T21:40:08.445Z,2.77
2018-06-15T21:42:35.400Z,3.33
2018-06-15T21:45:02.261Z,2.73
2018-06-15T21:47:29.181Z,2.70
2018-06-15T21:49:56.068Z,3.07
2018-06-15T21:52:22.979Z,3.17
2018-06-15T21:54:49.869Z,3.30
2018-06-15T21:57:16.765Z,2.53
2018-06-15T21:59:43.657Z,2.80
2018-06-15T22:02:10.587Z,2.53
2018-06-15T22:04:37.485Z,2.90
2018-06-15T22:07:04.395Z,2.93
2018-06-15T22:09:31.319Z,2.90
2018-06-15T22:11:58.269Z,2.87
2018-06-15T22:14:25.159Z,2.70
2018-06-15T22:16:52.468Z,3.00
2018-06-15T22:19:21.673Z,2.90
2018-06-15T22:21:49.343Z,2.70
2018-06-15T22:24:16.260Z,2.90
2018-06-15T22:26:43.364Z,2.80
2018-06-15T22:29:10.276Z,2.90
2018-06-15T22:31:37.211Z,2.60
2018-06-15T22:34:04.171Z,3.13
2018-06-15T22:36:31.117Z,2.50
2018-06-15T22:38:58.030Z,2.57
2018-06-15T22:41:24.942Z,3.50
2018-06-15T22:43:51.870Z,2.60
2018-06-15T22:46:18.861Z,2.93
2018-06-15T22:48:45.801Z,2.90
2018-06-15T22:51:12.735Z,2.47
2018-06-15T22:53:39.701Z,2.33
2018-06-15T22:56:06.711Z,2.70
2018-06-15T22:58:33.759Z,2.90
2018-06-15T23:01:00.674Z,2.77
2018-06-15T23:03:27.657Z,2.67
2018-06-15T23:05:54.730Z,2.70
2018-06-15T23:08:21.669Z,2.70
2018-06-15T23:10:48.604Z,2.60
2018-06-15T23:13:15.572Z,2.43
2018-06-15T23:15:42.529Z,2.97
2018-06-15T23:18:09.466Z,2.73
2018-06-15T23:20:36.368Z,2.67
2018-06-15T23:23:03.382Z,2.73
2018-06-15T23:25:30.329Z,3.07
2018-06-15T23:27:57.282Z,2.37
2018-06-15T23:30:24.263Z,3.23
2018-06-15T23:32:51.213Z,2.77
2018-06-15T23:35:18.126Z,3.03
2018-06-15T23:37:45.097Z,2.70
2018-06-15T23:40:12.049Z,2.47
2018-06-15T23:42:38.977Z,2.10
2018-06-15T23:45:05.882Z,2.40
2018-06-15T23:47:32.808Z,2.33
2018-06-15T23:49:59.728Z,2.10
2018-06-15T23:52:26.643Z,2.60
2018-06-15T23:54:54.441Z,3.03
2018-06-15T23:57:21.365Z,2.90
2018-06-15T23:59:48.272Z,3.10
